Hovedside
METAR-TAF:

METAR-TAF

Lufthavner :

Bodø lufthavn

Bodø, Norge

breddegrad: 67-16N, lengdegrad: 014-22E, høyde over havet: 1 m

Gjeldene værobservasjon

Denne rapporten ble laget for 29 minutter siden, klokken 14:20 UTC
Vind 11 kt fra Øst
Temperatur 12°C
Luftfuktighet 62%
Trykk 1024 hPa
Sikt 10 km eller mer
ingen skyer under 1500 m og ingen bygeskyer

METAR: ENBO 191420Z 08011KT CAVOK 12/05 Q1024 NOSIG

Tid: 16:49 (14:49 UTC)

Varsel

Varsel gyldig fra 19. klokken 12 UTC til 20. klokken 12 UTC
Vind 15 kt fra Øst
Sikt 10 km eller mer
ingen skyer under 1500 m og ingen bygeskyer
Midlertidig
fra 19. klokken 12 UTC til 19. klokken 18 UTC
Vind 5 kt fra Øst

TAF: ENBO 1912/2012 10015KT CAVOK TEMPO 1912/1918 10005KT

Værobservasjoner og værvarsel for over 4000 flyplasser (METAR- og TAF-rapporter).

Tilgjengelige stasjoner er representert av de røde og gule prikkene på kartet.

Hold musepekeren over prikken for å se navnet på stasjonen.

Klikk så for å se værobservasjoner og -varsler.

For å forandre kartet kan du klikke på den grønne knappen med svart kryss for å zoome inn, på den grønne knappen med strek for å zoome ut, eller på de grønne pilene for å se tilstøtende kart.


METAR-TAF: